createdAt,value
2018-12-10T00:02:04.857Z,94218.95
2018-12-10T00:04:43.524Z,94220.44
2018-12-10T00:07:21.113Z,94213.95
2018-12-10T00:09:50.323Z,94214.90
2018-12-10T00:12:18.624Z,94217.88
2018-12-10T00:14:46.916Z,94207.67
2018-12-10T00:17:15.209Z,94213.80
2018-12-10T00:20:05.045Z,94211.34
2018-12-10T00:22:42.032Z,94219.75
2018-12-10T00:25:10.369Z,94219.75
2018-12-10T00:27:48.095Z,94200.86
2018-12-10T00:30:29.291Z,94201.85
2018-12-10T00:32:57.759Z,94196.37
2018-12-10T00:35:26.208Z,94202.48
2018-12-10T00:38:10.796Z,94207.52
2018-12-10T00:40:39.089Z,94200.42
2018-12-10T00:43:07.487Z,94203.27
2018-12-10T00:45:35.834Z,94203.82
2018-12-10T00:48:04.180Z,94216.26
2018-12-10T00:50:32.551Z,94212.91
2018-12-10T00:53:00.882Z,94208.87
2018-12-10T00:55:29.177Z,94201.72
2018-12-10T00:58:12.372Z,94192.81
2018-12-10T01:00:48.424Z,94191.44
2018-12-10T01:03:19.907Z,94180.81
2018-12-10T01:05:48.278Z,94185.94
2018-12-10T01:08:37.315Z,94190.06
2018-12-10T01:11:22.212Z,94181.46
2018-12-10T01:13:50.489Z,94176.23
2018-12-10T01:16:18.788Z,94166.07
2018-12-10T01:18:54.236Z,94160.70
2018-12-10T01:21:32.722Z,94153.58
2018-12-10T01:24:00.938Z,94154.47
2018-12-10T01:26:42.228Z,94150.78
2018-12-10T01:29:27.205Z,94147.45
2018-12-10T01:31:55.503Z,94143.12
2018-12-10T01:34:23.848Z,94150.33
2018-12-10T01:36:52.235Z,94149.25
2018-12-10T01:39:20.474Z,94156.51
2018-12-10T01:42:03.277Z,94150.94
2018-12-10T01:44:31.555Z,94144.09
2018-12-10T01:46:59.820Z,94146.77
2018-12-10T01:49:35.960Z,94143.94
2018-12-10T01:52:16.663Z,94142.20
2018-12-10T01:54:45.124Z,94145.76
2018-12-10T01:57:23.893Z,94142.34
2018-12-10T02:00:03.884Z,94143.19
2018-12-10T02:02:32.432Z,94139.69
2018-12-10T02:05:14.983Z,94139.17
2018-12-10T02:07:43.303Z,94133.31
2018-12-10T02:10:11.652Z,94126.17
2018-12-10T02:12:40.010Z,94117.98
2018-12-10T02:15:18.885Z,94113.42
2018-12-10T02:17:50.860Z,94116.55
2018-12-10T02:20:27.297Z,94116.45
2018-12-10T02:22:55.709Z,94117.39
2018-12-10T02:25:23.904Z,94113.77
2018-12-10T02:28:00.389Z,94105.09
2018-12-10T02:30:36.797Z,94093.32
2018-12-10T02:33:09.362Z,94095.84
2018-12-10T02:35:37.708Z,94094.03
2018-12-10T02:38:06.079Z,94092.05
2018-12-10T02:40:34.640Z,94083.45
2018-12-10T02:43:03.232Z,94080.56
2018-12-10T02:45:43.916Z,94076.25
2018-12-10T02:48:22.378Z,94074.57
2018-12-10T02:50:58.111Z,94074.06
2018-12-10T02:53:36.730Z,94080.39
2018-12-10T02:56:19.853Z,93848.59
2018-12-10T02:59:08.953Z,94072.02
2018-12-10T03:04:33.153Z,94047.47
2018-12-10T03:07:22.149Z,94048.17
2018-12-10T03:09:50.450Z,94054.13
2018-12-10T03:12:18.908Z,94050.97
2018-12-10T03:15:00.701Z,94067.81
2018-12-10T03:17:30.295Z,94070.00
2018-12-10T03:19:58.516Z,94072.02
2018-12-10T03:22:27.036Z,94065.89
2018-12-10T03:24:55.356Z,94057.45
2018-12-10T03:27:23.688Z,94058.22
2018-12-10T03:29:52.157Z,94056.83
2018-12-10T03:32:46.373Z,94059.25
2018-12-10T03:35:23.480Z,94068.94
2018-12-10T03:38:04.252Z,94063.67
2018-12-10T03:40:32.602Z,94071.25
2018-12-10T03:43:00.933Z,94079.12
2018-12-10T03:45:50.276Z,94076.79
2018-12-10T03:51:27.833Z,94091.26
2018-12-10T03:54:10.623Z,94098.55
2018-12-10T03:56:38.905Z,94108.36
2018-12-10T03:59:07.225Z,94117.83
2018-12-10T04:01:35.740Z,94120.23
2018-12-10T04:04:25.295Z,94117.11
2018-12-10T04:06:54.163Z,94120.55
2018-12-10T04:09:22.483Z,94122.38
2018-12-10T04:12:03.286Z,94124.27
2018-12-10T04:14:52.838Z,94122.44
2018-12-10T04:17:41.356Z,94120.44
2018-12-10T04:20:22.156Z,94109.59
2018-12-10T04:23:07.184Z,94116.09
2018-12-10T04:25:42.587Z,94116.03
2018-12-10T04:28:16.555Z,94122.72
2018-12-10T04:30:58.287Z,94109.59
2018-12-10T04:33:34.373Z,94109.27
2018-12-10T04:36:17.629Z,94110.70
2018-12-10T04:39:01.495Z,94114.76
2018-12-10T04:41:51.126Z,94113.30
2018-12-10T04:44:40.574Z,94111.54
2018-12-10T04:47:16.708Z,94110.44
2018-12-10T04:50:05.679Z,94110.27
2018-12-10T04:52:50.662Z,94110.72
2018-12-10T04:55:26.845Z,94110.44
2018-12-10T04:57:55.447Z,94117.44
2018-12-10T05:00:40.606Z,94115.25
2018-12-10T05:03:25.567Z,94116.81
2018-12-10T05:06:10.260Z,94106.94
2018-12-10T05:08:55.120Z,94099.22
2018-12-10T05:11:43.891Z,94098.78
2018-12-10T05:14:15.719Z,94093.13
2018-12-10T05:17:04.998Z,94098.98
2018-12-10T05:19:50.466Z,94097.04
2018-12-10T05:22:26.499Z,94087.95
2018-12-10T05:25:20.662Z,94087.39
2018-12-10T05:28:02.244Z,94074.59
2018-12-10T05:30:45.851Z,94080.55
2018-12-10T05:33:22.100Z,94079.34
2018-12-10T05:36:11.459Z,94081.44
2018-12-10T05:39:00.968Z,94085.40
2018-12-10T05:41:40.442Z,94094.77
2018-12-10T05:44:38.377Z,94093.70
2018-12-10T05:47:23.926Z,94104.09
2018-12-10T05:49:59.857Z,94109.95
2018-12-10T05:52:44.702Z,94112.73
2018-12-10T05:55:21.271Z,94121.98
2018-12-10T05:58:04.425Z,94129.17
2018-12-10T06:00:54.124Z,94127.00
2018-12-10T06:03:36.866Z,94124.83
2018-12-10T06:06:21.500Z,94128.66
2018-12-10T06:09:10.536Z,94131.33
2018-12-10T06:12:00.329Z,94128.92
2018-12-10T06:14:50.035Z,94134.53
2018-12-10T06:17:32.861Z,94146.16
2018-12-10T06:20:22.205Z,94145.17
2018-12-10T06:23:12.052Z,94144.27
2018-12-10T06:25:48.656Z,94147.70
2018-12-10T06:31:17.482Z,94156.53
2018-12-10T06:34:00.611Z,94158.38
2018-12-10T06:36:42.464Z,94174.73
2018-12-10T06:39:31.433Z,94175.72
2018-12-10T06:42:08.295Z,94175.40
2018-12-10T06:44:37.409Z,94182.49
2018-12-10T06:47:06.321Z,94184.63
2018-12-10T06:49:35.046Z,94190.56
2018-12-10T06:52:04.062Z,94192.37
2018-12-10T06:54:32.466Z,94190.25
2018-12-10T06:57:00.961Z,94202.67
2018-12-10T06:59:29.317Z,94206.84
2018-12-10T07:01:57.869Z,94212.50
2018-12-10T07:04:26.293Z,94210.23
2018-12-10T07:06:54.817Z,94206.98
2018-12-10T07:09:23.361Z,94220.89
2018-12-10T07:11:52.328Z,94223.20
2018-12-10T07:14:21.418Z,94231.45
2018-12-10T07:16:50.024Z,94233.20
2018-12-10T07:19:20.218Z,94241.16
2018-12-10T07:21:48.877Z,94242.80
2018-12-10T07:24:17.305Z,94247.41
2018-12-10T07:26:45.775Z,94245.64
2018-12-10T07:29:14.421Z,94272.94
2018-12-10T07:31:42.793Z,94264.34
2018-12-10T07:34:11.336Z,94270.64
2018-12-10T07:36:39.740Z,94273.30
2018-12-10T07:39:08.695Z,94273.48
2018-12-10T07:41:37.142Z,94275.66
2018-12-10T07:44:05.514Z,94279.58
2018-12-10T07:46:34.292Z,94283.61
2018-12-10T07:49:02.845Z,94288.95
2018-12-10T07:51:31.384Z,94289.73
2018-12-10T07:54:00.287Z,94291.01
2018-12-10T07:56:29.124Z,94294.93
2018-12-10T07:58:57.847Z,94296.75
2018-12-10T08:01:26.621Z,94299.13
2018-12-10T08:03:55.374Z,94302.91
2018-12-10T08:06:23.970Z,94302.84
2018-12-10T08:08:52.686Z,94300.13
2018-12-10T08:11:21.372Z,94313.03
2018-12-10T08:13:49.905Z,94309.81
2018-12-10T08:16:18.417Z,94314.15
2018-12-10T08:18:47.203Z,94313.59
2018-12-10T08:21:17.561Z,94324.78
2018-12-10T08:23:46.078Z,94320.20
2018-12-10T08:26:15.315Z,94317.43
2018-12-10T08:34:28.058Z,94319.25
2018-12-10T08:40:07.741Z,94326.59
2018-12-10T08:42:36.371Z,94327.33
2018-12-10T08:45:06.166Z,94328.90
2018-12-10T08:47:34.848Z,94329.72
2018-12-10T08:50:03.786Z,94323.39
2018-12-10T08:52:32.843Z,94330.91
2018-12-10T08:55:01.325Z,94328.00
2018-12-10T08:57:30.153Z,94324.16
2018-12-10T08:59:59.436Z,94322.31
2018-12-10T09:02:31.313Z,94325.58
2018-12-10T09:05:01.006Z,94326.66
2018-12-10T09:07:29.410Z,94300.13
2018-12-10T09:09:57.876Z,94322.66
2018-12-10T09:12:26.669Z,94316.80
2018-12-10T09:14:55.210Z,94323.50
2018-12-10T09:17:23.801Z,94312.96
2018-12-10T09:19:52.231Z,94318.89
2018-12-10T09:22:20.983Z,94311.45
2018-12-10T09:24:49.474Z,94323.16
2018-12-10T09:27:27.380Z,94322.96
2018-12-10T09:29:56.004Z,94318.05
2018-12-10T09:32:24.555Z,94314.95
2018-12-10T09:34:53.172Z,94319.80
2018-12-10T09:37:21.894Z,94294.48
2018-12-10T09:39:51.696Z,94310.20
2018-12-10T09:42:20.895Z,94313.52
2018-12-10T09:44:49.526Z,94309.51
2018-12-10T09:47:18.075Z,94321.05
2018-12-10T09:49:47.847Z,94312.38
2018-12-10T09:52:16.740Z,94302.97
2018-12-10T09:54:45.649Z,94296.43
2018-12-10T09:57:14.457Z,94305.12
2018-12-10T09:59:43.259Z,94298.73
2018-12-10T10:02:12.836Z,94302.52
2018-12-10T10:04:41.443Z,94301.48
2018-12-10T10:07:10.021Z,94299.77
2018-12-10T10:09:38.439Z,94296.17
2018-12-10T10:12:06.964Z,94302.39
2018-12-10T10:14:35.407Z,94301.44
2018-12-10T10:17:04.393Z,94297.77
2018-12-10T10:19:33.055Z,94305.00
2018-12-10T10:22:01.571Z,94305.06
2018-12-10T10:24:30.198Z,94295.41
2018-12-10T10:26:58.862Z,94295.70
2018-12-10T10:29:27.592Z,94283.78
2018-12-10T10:31:56.128Z,94291.55
2018-12-10T10:34:24.532Z,94283.45
2018-12-10T10:36:53.125Z,94283.66
2018-12-10T10:39:22.061Z,94281.39
2018-12-10T10:41:57.426Z,94284.13
2018-12-10T10:44:26.373Z,94281.45
2018-12-10T10:46:55.075Z,94275.58
2018-12-10T10:49:23.703Z,94275.67
2018-12-10T10:51:52.319Z,94274.06
2018-12-10T10:54:20.771Z,94264.89
2018-12-10T10:56:49.304Z,94272.20
2018-12-10T10:59:17.855Z,94269.63
2018-12-10T11:01:51.661Z,94261.20
2018-12-10T11:04:20.560Z,94266.35
2018-12-10T11:06:49.503Z,94264.73
2018-12-10T11:09:18.275Z,94258.20
2018-12-10T11:11:47.059Z,94262.59
2018-12-10T11:14:15.827Z,94269.48
2018-12-10T11:16:44.502Z,94271.77
2018-12-10T11:19:16.267Z,94267.32
2018-12-10T11:21:44.829Z,94264.73
2018-12-10T11:24:13.207Z,94263.45
2018-12-10T11:26:41.644Z,94265.50
2018-12-10T11:29:10.629Z,94264.32
2018-12-10T11:31:39.462Z,94276.74
2018-12-10T11:34:08.124Z,94274.83
2018-12-10T11:36:36.967Z,94272.34
2018-12-10T11:39:06.887Z,94279.69
2018-12-10T11:41:35.740Z,94279.17
2018-12-10T11:44:04.270Z,93994.55
2018-12-10T11:46:33.367Z,94289.12
2018-12-10T11:49:02.127Z,94286.61
2018-12-10T11:51:30.544Z,94278.77
2018-12-10T11:53:58.843Z,94284.31
2018-12-10T11:56:27.083Z,94286.14
2018-12-10T11:58:55.425Z,94274.93
2018-12-10T12:01:23.785Z,94276.72
2018-12-10T12:03:52.174Z,94275.16
2018-12-10T12:06:20.605Z,94269.81
2018-12-10T12:08:48.894Z,94277.16
2018-12-10T12:11:17.385Z,94273.41
2018-12-10T12:13:46.062Z,94276.44
2018-12-10T12:16:15.013Z,94279.91
2018-12-10T12:18:43.196Z,94275.38
2018-12-10T12:21:11.383Z,94274.14
2018-12-10T12:23:40.232Z,94276.73
2018-12-10T12:26:08.584Z,94278.28
2018-12-10T12:28:37.152Z,94275.36
2018-12-10T12:31:05.420Z,94274.47
2018-12-10T12:33:33.760Z,94275.64
2018-12-10T12:36:02.066Z,94264.68
2018-12-10T12:38:30.297Z,94276.98
2018-12-10T12:40:58.768Z,94265.47
2018-12-10T12:43:27.013Z,94270.17
2018-12-10T12:45:55.527Z,94266.66
2018-12-10T12:48:23.855Z,94264.05
2018-12-10T12:50:52.541Z,94269.81
2018-12-10T12:53:21.075Z,94267.98
2018-12-10T12:55:49.647Z,94266.53
2018-12-10T12:58:18.022Z,94269.03
2018-12-10T13:00:46.682Z,94266.50
2018-12-10T13:03:15.093Z,94270.78
2018-12-10T13:05:43.486Z,94284.02
2018-12-10T13:08:12.522Z,94280.17
2018-12-10T13:10:40.831Z,94276.55
2018-12-10T13:13:09.451Z,94281.00
2018-12-10T13:15:37.931Z,94275.41
2018-12-10T13:18:06.501Z,94267.27
2018-12-10T13:20:35.730Z,94268.82
2018-12-10T13:23:04.089Z,94278.98
2018-12-10T13:25:32.461Z,94279.55
2018-12-10T13:28:00.921Z,94276.94
2018-12-10T13:30:29.347Z,94284.50
2018-12-10T13:32:57.871Z,94284.23
2018-12-10T13:35:26.393Z,94282.81
2018-12-10T13:37:55.647Z,94285.97
2018-12-10T13:40:24.533Z,94285.02
2018-12-10T13:42:53.182Z,94284.19
2018-12-10T13:45:22.205Z,94285.84
2018-12-10T13:47:50.857Z,94288.03
2018-12-10T13:50:19.622Z,94283.02
2018-12-10T13:52:48.560Z,94285.10
2018-12-10T13:55:16.953Z,94295.55
2018-12-10T13:57:45.396Z,94290.11
2018-12-10T14:00:14.287Z,94292.52
2018-12-10T14:02:42.747Z,94290.66
2018-12-10T14:05:15.765Z,94298.05
2018-12-10T14:07:48.124Z,94289.17
2018-12-10T14:10:15.706Z,94299.75
2018-12-10T14:12:48.939Z,94294.99
2018-12-10T14:15:18.921Z,94294.69
2018-12-10T14:17:47.314Z,94298.33
2018-12-10T14:20:21.038Z,94295.55
2018-12-10T14:22:49.485Z,94296.81
2018-12-10T14:25:24.365Z,94313.77
2018-12-10T14:27:53.088Z,94302.70
2018-12-10T14:30:22.669Z,94313.91
2018-12-10T14:32:51.455Z,94307.55
2018-12-10T14:35:19.862Z,94314.69
2018-12-10T14:37:48.369Z,94315.59
2018-12-10T14:40:16.936Z,94313.95
2018-12-10T14:42:54.189Z,94316.73
2018-12-10T14:45:22.811Z,94309.34
2018-12-10T14:47:53.983Z,94311.27
2018-12-10T14:50:22.266Z,94306.70
2018-12-10T14:52:50.948Z,94314.02
2018-12-10T14:55:19.411Z,94311.42
2018-12-10T14:57:47.903Z,94318.61
2018-12-10T15:00:16.427Z,94319.96
2018-12-10T15:02:44.856Z,94316.24
2018-12-10T15:05:13.189Z,94320.05
2018-12-10T15:07:41.524Z,94319.62
2018-12-10T15:10:11.005Z,94326.17
2018-12-10T15:12:39.693Z,94337.22
2018-12-10T15:15:09.700Z,94327.30
2018-12-10T15:17:38.711Z,94339.58
2018-12-10T15:20:12.050Z,94340.16
2018-12-10T15:22:40.474Z,94347.41
2018-12-10T15:25:09.756Z,94346.83
2018-12-10T15:27:38.550Z,94324.70
2018-12-10T15:30:10.418Z,94346.05
2018-12-10T15:32:39.252Z,94350.02
2018-12-10T15:35:22.563Z,94350.20
2018-12-10T15:37:51.755Z,94351.63
2018-12-10T15:40:20.225Z,94350.00
2018-12-10T15:42:48.780Z,94354.47
2018-12-10T15:45:17.192Z,94352.77
2018-12-10T15:47:45.862Z,94354.80
2018-12-10T15:50:14.251Z,94352.92
2018-12-10T15:52:42.641Z,94359.52
2018-12-10T15:55:11.090Z,94357.25
2018-12-10T15:57:39.601Z,94365.23
2018-12-10T16:00:08.739Z,94360.23
2018-12-10T16:02:37.057Z,94365.53
2018-12-10T16:05:05.846Z,94373.53
2018-12-10T16:07:34.259Z,94372.51
2018-12-10T16:10:02.785Z,94369.80
2018-12-10T16:12:31.543Z,94375.50
2018-12-10T16:15:00.028Z,94383.19
2018-12-10T16:17:28.561Z,94390.22
2018-12-10T16:19:56.898Z,94383.72
2018-12-10T16:22:25.433Z,94391.54
2018-12-10T16:24:53.909Z,94386.11
2018-12-10T16:27:22.719Z,94382.33
2018-12-10T16:29:51.265Z,94387.42
2018-12-10T16:32:20.962Z,94395.27
2018-12-10T16:34:49.464Z,94398.67
2018-12-10T16:37:18.551Z,94391.52
2018-12-10T16:39:47.273Z,94400.88
2018-12-10T16:42:16.601Z,94405.98
2018-12-10T16:44:45.098Z,94406.68
2018-12-10T16:47:13.693Z,94405.32
2018-12-10T16:49:42.113Z,94398.99
2018-12-10T16:52:10.523Z,94403.32
2018-12-10T16:54:39.905Z,94405.40
2018-12-10T16:57:08.363Z,94405.73
2018-12-10T16:59:36.616Z,94410.99
2018-12-10T17:02:05.097Z,94412.19
2018-12-10T17:04:33.545Z,94412.92
2018-12-10T17:07:01.953Z,94414.95
2018-12-10T17:09:30.475Z,94414.55
2018-12-10T17:11:59.025Z,94412.45
2018-12-10T17:14:28.427Z,94413.45
2018-12-10T17:16:56.747Z,94415.13
2018-12-10T17:19:25.613Z,94410.89
2018-12-10T17:21:54.131Z,94408.67
2018-12-10T17:24:22.758Z,94414.80
2018-12-10T17:26:51.459Z,94414.45
2018-12-10T17:29:20.162Z,94410.39
2018-12-10T17:31:48.558Z,94415.63
2018-12-10T17:34:16.935Z,94407.36
2018-12-10T17:36:45.340Z,94421.11
2018-12-10T17:39:13.722Z,94418.62
2018-12-10T17:41:42.692Z,94419.16
2018-12-10T17:44:11.069Z,94408.25
2018-12-10T17:46:39.369Z,94418.50
2018-12-10T17:49:07.726Z,94420.64
2018-12-10T17:51:36.293Z,94422.48
2018-12-10T17:54:05.099Z,94427.53
2018-12-10T17:56:34.399Z,94432.32
2018-12-10T17:59:03.245Z,94436.16
2018-12-10T18:01:32.003Z,94423.90
2018-12-10T18:04:03.272Z,94443.50
2018-12-10T18:06:31.600Z,94449.84
2018-12-10T18:09:00.095Z,94446.93
2018-12-10T18:11:31.577Z,94441.08
2018-12-10T18:13:59.920Z,94443.52
2018-12-10T18:16:28.185Z,94421.86
2018-12-10T18:18:56.691Z,94452.41
2018-12-10T18:21:25.071Z,94457.01
2018-12-10T18:23:53.473Z,94454.30
2018-12-10T18:26:21.864Z,94459.05
2018-12-10T18:28:50.352Z,94461.73
2018-12-10T18:31:18.700Z,94462.99
2018-12-10T18:33:47.314Z,94468.92
2018-12-10T18:36:15.996Z,94464.80
2018-12-10T18:38:44.864Z,94464.36
2018-12-10T18:41:13.348Z,94471.41
2018-12-10T18:43:41.867Z,94475.49
2018-12-10T18:46:10.384Z,94480.05
2018-12-10T18:48:38.823Z,94477.11
2018-12-10T18:51:08.067Z,94474.69
2018-12-10T18:53:36.507Z,94485.64
2018-12-10T18:56:05.046Z,94489.48
2018-12-10T18:58:33.697Z,94490.90
2018-12-10T19:01:02.080Z,94488.16
2018-12-10T19:03:30.507Z,94499.03
2018-12-10T19:05:59.028Z,94497.19
2018-12-10T19:08:27.683Z,94500.30
2018-12-10T19:10:56.242Z,94490.87
2018-12-10T19:13:25.042Z,94491.94
2018-12-10T19:15:54.189Z,94491.08
2018-12-10T19:18:22.466Z,94503.86
2018-12-10T19:20:51.002Z,94509.71
2018-12-10T19:23:19.414Z,94509.04
2018-12-10T19:25:47.984Z,94502.99
2018-12-10T19:28:16.358Z,94511.66
2018-12-10T19:30:45.389Z,94507.39
2018-12-10T19:33:14.287Z,94512.72
2018-12-10T19:35:42.712Z,94511.25
2018-12-10T19:38:11.158Z,94513.59
2018-12-10T19:40:40.274Z,94516.68
2018-12-10T19:43:08.777Z,94515.06
2018-12-10T19:45:37.086Z,94525.70
2018-12-10T19:48:05.404Z,94514.09
2018-12-10T19:50:34.068Z,94520.11
2018-12-10T19:53:02.881Z,94515.34
2018-12-10T19:55:31.728Z,94511.16
2018-12-10T19:58:00.552Z,94512.16
2018-12-10T20:00:29.036Z,94514.61
2018-12-10T20:02:58.290Z,94511.23
2018-12-10T20:05:32.397Z,94495.76
2018-12-10T20:08:00.733Z,94508.30
2018-12-10T20:10:29.102Z,94503.38
2018-12-10T20:12:57.481Z,94501.22
2018-12-10T20:15:25.814Z,94497.19
2018-12-10T20:17:54.303Z,94498.35
2018-12-10T20:20:22.743Z,94491.50
2018-12-10T20:22:50.992Z,94483.30
2018-12-10T20:25:19.502Z,94496.09
2018-12-10T20:27:48.128Z,94496.69
2018-12-10T20:30:16.579Z,94496.87
2018-12-10T20:32:45.121Z,94497.95
2018-12-10T20:35:13.533Z,94494.19
2018-12-10T20:37:41.957Z,94502.70
2018-12-10T20:40:10.753Z,94498.71
2018-12-10T20:42:39.443Z,94503.03
2018-12-10T20:45:09.522Z,94507.88
2018-12-10T20:47:38.197Z,94508.89
2018-12-10T20:50:07.517Z,94511.41
2018-12-10T20:52:36.091Z,94512.49
2018-12-10T20:55:05.496Z,94514.15
2018-12-10T20:57:33.805Z,94518.58
2018-12-10T21:00:02.167Z,94525.62
2018-12-10T21:02:31.128Z,94520.11
2018-12-10T21:04:59.687Z,94526.60
2018-12-10T21:07:28.235Z,94532.14
2018-12-10T21:09:56.920Z,94533.64
2018-12-10T21:12:25.481Z,94530.46
2018-12-10T21:15:00.212Z,94535.13
2018-12-10T21:17:24.999Z,94531.59
2018-12-10T21:19:53.280Z,94534.61
2018-12-10T21:22:21.775Z,94536.27
2018-12-10T21:24:50.180Z,94541.67
2018-12-10T21:27:18.786Z,94543.98
2018-12-10T21:29:47.244Z,94543.94
2018-12-10T21:32:15.682Z,94540.28
2018-12-10T21:34:44.110Z,94538.02
2018-12-10T21:37:12.436Z,94541.31
2018-12-10T21:39:41.376Z,94541.48
2018-12-10T21:42:09.675Z,94547.69
2018-12-10T21:44:38.060Z,94546.82
2018-12-10T21:47:06.959Z,94546.98
2018-12-10T21:49:36.196Z,94546.61
2018-12-10T21:52:04.694Z,94548.70
2018-12-10T21:54:32.980Z,94546.86
2018-12-10T21:57:01.701Z,94545.94
2018-12-10T21:59:30.752Z,94556.82
2018-12-10T22:01:59.188Z,94550.09
2018-12-10T22:04:27.745Z,94551.45
2018-12-10T22:06:56.000Z,94553.36
2018-12-10T22:09:24.320Z,94548.61
2018-12-10T22:11:52.580Z,94544.33
2018-12-10T22:14:21.066Z,94544.65
2018-12-10T22:16:49.479Z,94547.27
2018-12-10T22:19:17.762Z,94551.59
2018-12-10T22:21:46.280Z,94554.30
2018-12-10T22:24:14.616Z,94553.28
2018-12-10T22:26:43.056Z,94544.81
2018-12-10T22:29:11.545Z,94558.17
2018-12-10T22:31:40.061Z,94561.12
2018-12-10T22:34:08.481Z,94546.53
2018-12-10T22:36:36.968Z,94559.66
2018-12-10T22:39:07.398Z,94555.62
2018-12-10T22:41:35.697Z,94563.44
2018-12-10T22:44:04.362Z,94559.51
2018-12-10T22:46:32.930Z,94567.80
2018-12-10T22:49:01.288Z,94553.90
2018-12-10T22:51:29.914Z,94563.18
2018-12-10T22:53:58.321Z,94559.37
2018-12-10T22:56:27.185Z,94562.72
2018-12-10T22:58:55.679Z,94560.69
2018-12-10T23:01:24.595Z,94555.51
2018-12-10T23:03:53.004Z,94564.71
2018-12-10T23:06:21.475Z,94556.48
2018-12-10T23:08:50.029Z,94558.34
2018-12-10T23:11:18.548Z,94557.51
2018-12-10T23:13:47.361Z,94569.48
2018-12-10T23:16:15.960Z,94571.21
2018-12-10T23:18:44.811Z,94563.98
2018-12-10T23:21:13.511Z,94561.47
2018-12-10T23:23:42.215Z,94561.86
2018-12-10T23:26:10.546Z,94567.16
2018-12-10T23:28:38.741Z,94559.55
2018-12-10T23:31:07.195Z,94555.12
2018-12-10T23:33:35.752Z,94566.37
2018-12-10T23:36:04.315Z,94559.13
2018-12-10T23:38:32.695Z,94561.39
2018-12-10T23:41:01.196Z,94560.23
2018-12-10T23:43:29.468Z,94561.67
2018-12-10T23:45:57.752Z,94562.49
2018-12-10T23:48:26.098Z,94564.96
2018-12-10T23:50:54.536Z,94561.06
2018-12-10T23:53:22.832Z,94573.19
2018-12-10T23:55:51.236Z,94569.86
2018-12-10T23:58:19.702Z,94572.77
